Time;durP1;ratioP1;P1;durP2;ratioP2;P2;SDS_P1;SDS_P2;PMS_P1;PMS_P2;Temp;Humidity;BMP_temperature;BMP_pressure;BME280_temperature;BME280_humidity;BME280_pressure;Samples;Min_cycle;Max_cycle;Signal;HPM_P1;HPM_P2
2023/11/12 00:00:38;;;;;;;4.63;2.97;;;21.60;93.60;;;;;;5029656;28;21089;-58
2023/11/12 00:03:05;;;;;;;6.47;3.30;;;21.60;93.60;;;;;;5036067;28;20967;-57
2023/11/12 00:05:33;;;;;;;4.73;3.63;;;21.60;93.60;;;;;;5032906;28;20458;-59
2023/11/12 00:08:00;;;;;;;4.87;3.40;;;21.60;93.90;;;;;;5031361;28;20793;-57
2023/11/12 00:10:27;;;;;;;5.77;3.23;;;21.50;93.50;;;;;;5030259;28;20462;-58
2023/11/12 00:12:54;;;;;;;4.90;3.43;;;21.50;93.50;;;;;;5034818;28;20461;-55
2023/11/12 00:15:21;;;;;;;3.47;3.00;;;21.50;93.50;;;;;;5032838;28;20456;-58
2023/11/12 00:17:47;;;;;;;2.87;2.57;;;21.50;93.60;;;;;;5034610;28;20209;-59
2023/11/12 00:20:14;;;;;;;5.80;3.30;;;21.50;93.60;;;;;;5035321;28;20826;-60
2023/11/12 00:22:43;;;;;;;5.60;3.77;;;21.50;93.70;;;;;;5036153;28;20474;-55
2023/11/12 00:25:12;;;;;;;4.13;3.70;;;21.50;93.60;;;;;;5033712;28;20460;-55
2023/11/12 00:27:39;;;;;;;3.83;2.63;;;21.50;93.60;;;;;;5038118;28;20535;-58
2023/11/12 00:30:07;;;;;;;3.70;2.93;;;21.50;93.60;;;;;;5024498;28;20454;-54
2023/11/12 00:32:34;;;;;;;3.00;2.50;;;21.50;93.60;;;;;;5036761;28;20461;-57
2023/11/12 00:35:01;;;;;;;4.50;3.27;;;21.50;93.60;;;;;;5036140;28;20981;-54
2023/11/12 00:37:28;;;;;;;4.97;2.87;;;21.50;93.60;;;;;;5028475;28;20466;-54
2023/11/12 00:39:56;;;;;;;5.50;3.40;;;21.50;93.70;;;;;;5026389;28;20501;-56
2023/11/12 00:42:23;;;;;;;4.03;3.22;;;21.50;93.80;;;;;;5023121;28;20473;-54
2023/11/12 00:44:51;;;;;;;7.97;3.70;;;21.50;93.90;;;;;;5024383;28;20533;-57
2023/11/12 00:47:18;;;;;;;4.20;3.13;;;21.50;93.90;;;;;;5034210;28;21000;-58
2023/11/12 00:49:45;;;;;;;4.13;3.20;;;21.50;94.00;;;;;;5036698;28;20465;-56
2023/11/12 00:52:12;;;;;;;3.58;2.75;;;21.50;94.10;;;;;;5035987;28;20496;-56
2023/11/12 00:54:38;;;;;;;3.30;3.00;;;21.50;94.10;;;;;;5033816;28;20202;-55
2023/11/12 00:57:06;;;;;;;3.80;2.70;;;21.50;94.20;;;;;;5032263;28;20933;-53
2023/11/12 00:59:35;;;;;;;4.87;2.70;;;21.50;94.30;;;;;;5028610;28;20472;-56
2023/11/12 01:02:02;;;;;;;4.00;3.00;;;21.50;94.30;;;;;;5025940;28;20489;-56
2023/11/12 01:04:28;;;;;;;3.70;2.67;;;21.50;94.40;;;;;;5029745;28;20503;-57
2023/11/12 01:06:55;;;;;;;2.83;2.13;;;21.50;94.40;;;;;;5021590;28;20892;-54
2023/11/12 01:09:22;;;;;;;4.30;3.13;;;21.50;94.50;;;;;;5024101;28;20785;-57
2023/11/12 01:11:49;;;;;;;4.30;2.40;;;21.60;94.70;;;;;;5024480;28;20540;-60
2023/11/12 01:14:17;;;;;;;3.87;2.93;;;21.60;94.60;;;;;;5025868;28;20469;-59
2023/11/12 01:16:44;;;;;;;3.90;2.20;;;21.60;94.60;;;;;;5021640;28;21657;-57
2023/11/12 01:19:11;;;;;;;3.30;2.83;;;21.60;94.70;;;;;;5026636;28;20543;-56
2023/11/12 01:21:38;;;;;;;3.63;2.80;;;21.60;94.70;;;;;;5028871;28;20465;-55
2023/11/12 01:24:05;;;;;;;4.37;2.70;;;21.60;94.70;;;;;;5027920;28;20953;-57
2023/11/12 01:26:32;;;;;;;3.17;2.57;;;21.60;94.70;;;;;;5022452;28;20844;-55
2023/11/12 01:28:59;;;;;;;10.13;3.47;;;21.60;94.70;;;;;;5024311;28;20465;-56
2023/11/12 01:31:27;;;;;;;3.00;2.20;;;21.70;94.80;;;;;;5023213;28;20465;-58
2023/11/12 01:33:54;;;;;;;3.90;2.47;;;21.70;94.80;;;;;;5029145;28;20450;-59
2023/11/12 01:36:22;;;;;;;4.13;2.63;;;21.70;94.80;;;;;;5025476;28;20834;-57
2023/11/12 01:38:49;;;;;;;5.43;2.43;;;21.70;94.80;;;;;;5030646;28;20464;-57
2023/11/12 01:41:16;;;;;;;4.50;2.67;;;21.70;94.80;;;;;;5028774;28;20474;-57
2023/11/12 01:43:43;;;;;;;3.20;2.67;;;21.70;94.80;;;;;;5027296;28;20461;-59
2023/11/12 01:46:09;;;;;;;2.23;2.00;;;21.70;94.80;;;;;;5033508;28;20462;-57
2023/11/12 01:48:38;;;;;;;3.67;2.47;;;21.70;94.90;;;;;;5024849;28;20485;-56
2023/11/12 01:51:06;;;;;;;4.40;2.73;;;21.70;94.90;;;;;;5028746;28;21000;-55
2023/11/12 01:53:36;;;;;;;4.03;2.63;;;21.70;95.00;;;;;;5029590;28;20461;-55
2023/11/12 01:56:08;;;;;;;3.83;2.73;;;21.70;95.00;;;;;;5032233;28;20465;-60
2023/11/12 01:58:35;;;;;;;3.20;2.60;;;21.80;95.00;;;;;;5033638;28;20471;-58
2023/11/12 02:01:02;;;;;;;3.63;2.10;;;21.70;94.90;;;;;;5030479;28;20469;-54
2023/11/12 02:03:30;;;;;;;5.00;2.67;;;21.80;95.00;;;;;;5053968;22;20515;-67
2023/11/12 02:05:59;;;;;;;3.07;2.20;;;21.80;95.00;;;;;;5046602;28;20456;-69
2023/11/12 02:08:27;;;;;;;3.57;2.60;;;21.80;95.00;;;;;;5044583;28;21372;-71
2023/11/12 02:10:54;;;;;;;4.90;2.77;;;21.80;94.90;;;;;;5049565;28;20481;-72
2023/11/12 02:13:22;;;;;;;2.33;1.80;;;21.80;95.00;;;;;;5051421;28;20461;-70
2023/11/12 02:15:50;;;;;;;4.50;2.13;;;21.80;95.00;;;;;;5047344;28;20465;-69
2023/11/12 02:18:16;;;;;;;2.87;1.97;;;21.80;94.90;;;;;;5049282;28;20503;-69
2023/11/12 02:20:47;;;;;;;3.50;2.80;;;21.80;94.90;;;;;;5040940;28;20468;-67
2023/11/12 02:23:15;;;;;;;3.23;2.53;;;21.80;95.00;;;;;;5043957;28;20461;-68
2023/11/12 02:25:44;;;;;;;2.87;2.10;;;21.80;95.00;;;;;;5045215;28;20535;-69
2023/11/12 02:28:12;;;;;;;2.83;2.33;;;21.90;95.00;;;;;;5044933;28;20500;-68
2023/11/12 02:30:40;;;;;;;2.30;2.07;;;21.80;95.00;;;;;;5045378;28;20657;-67
2023/11/12 02:33:07;;;;;;;2.80;2.00;;;21.80;95.00;;;;;;5047782;28;20467;-67
2023/11/12 02:35:36;;;;;;;2.67;1.97;;;21.90;95.10;;;;;;5043586;28;20457;-66
2023/11/12 02:38:04;;;;;;;3.50;2.00;;;21.90;95.00;;;;;;5046439;28;20547;-66
2023/11/12 02:40:31;;;;;;;2.23;1.73;;;21.90;95.00;;;;;;5045827;28;20460;-68
2023/11/12 02:42:59;;;;;;;3.53;2.53;;;21.90;95.00;;;;;;5050951;28;20491;-68
2023/11/12 02:45:26;;;;;;;2.50;1.83;;;21.90;94.90;;;;;;5046159;28;20795;-67
2023/11/12 02:47:52;;;;;;;4.03;2.90;;;21.90;94.90;;;;;;5048304;28;20483;-68
2023/11/12 02:50:30;;;;;;;2.40;1.90;;;21.90;94.90;;;;;;5048205;28;20464;-68
2023/11/12 02:52:59;;;;;;;2.73;2.33;;;22.00;94.90;;;;;;5049912;28;20577;-72
2023/11/12 02:55:27;;;;;;;4.43;1.70;;;22.00;94.90;;;;;;5051118;28;20460;-67
2023/11/12 02:57:53;;;;;;;2.60;1.93;;;22.00;94.90;;;;;;5044262;28;20468;-76
2023/11/12 03:00:23;;;;;;;1.87;1.70;;;22.00;94.90;;;;;;5043365;28;20949;-74
2023/11/12 03:02:49;;;;;;;2.23;1.80;;;22.00;94.90;;;;;;5045421;28;20468;-69
2023/11/12 03:05:16;;;;;;;2.93;2.03;;;22.00;94.90;;;;;;5042077;28;20846;-67
2023/11/12 03:07:43;;;;;;;4.20;2.57;;;22.00;94.80;;;;;;5048205;28;20506;-66
2023/11/12 03:10:10;;;;;;;3.60;2.23;;;22.00;94.90;;;;;;5045241;28;20457;-66
2023/11/12 03:12:40;;;;;;;2.73;2.47;;;22.00;94.90;;;;;;5043227;28;20975;-69
2023/11/12 03:15:09;;;;;;;3.53;2.30;;;22.00;94.90;;;;;;5041210;28;21548;-68
2023/11/12 03:17:37;;;;;;;2.37;1.80;;;22.00;94.90;;;;;;5045330;28;20465;-68
2023/11/12 03:20:08;;;;;;;2.43;2.20;;;22.00;94.80;;;;;;5047791;28;20458;-69
2023/11/12 03:22:35;;;;;;;2.40;1.73;;;22.00;94.80;;;;;;5045780;28;20497;-68
2023/11/12 03:25:04;;;;;;;2.60;1.93;;;22.00;94.80;;;;;;5049587;28;20468;-71
2023/11/12 03:27:31;;;;;;;2.40;1.90;;;22.00;95.10;;;;;;5045830;28;20468;-71
2023/11/12 03:29:58;;;;;;;3.10;2.27;;;22.10;94.80;;;;;;5045754;28;20456;-70
2023/11/12 03:32:25;;;;;;;1.77;1.50;;;22.10;94.80;;;;;;5040635;28;20838;-67
2023/11/12 03:34:53;;;;;;;4.17;2.00;;;22.10;94.80;;;;;;5045741;28;20459;-67
2023/11/12 03:37:20;;;;;;;1.87;1.40;;;22.10;94.90;;;;;;5048419;28;21092;-68
2023/11/12 03:39:48;;;;;;;2.23;1.57;;;22.10;94.80;;;;;;5049391;28;20473;-69
2023/11/12 03:42:15;;;;;;;3.00;1.90;;;22.10;94.80;;;;;;5049559;28;20458;-68
2023/11/12 03:44:42;;;;;;;2.83;1.90;;;22.10;94.80;;;;;;5046694;28;21097;-70
2023/11/12 03:47:09;;;;;;;2.60;1.90;;;22.00;94.70;;;;;;5045264;28;20472;-70
2023/11/12 03:49:36;;;;;;;2.23;1.70;;;22.10;94.90;;;;;;5047263;28;20468;-66
2023/11/12 03:52:05;;;;;;;2.50;1.70;;;22.10;94.90;;;;;;5050247;28;20459;-70
2023/11/12 03:54:31;;;;;;;8.40;2.90;;;22.00;94.80;;;;;;5050496;28;20452;-70
2023/11/12 03:56:58;;;;;;;2.17;1.63;;;22.10;94.90;;;;;;5048849;28;21121;-69
2023/11/12 03:59:25;;;;;;;4.03;1.53;;;22.10;94.80;;;;;;5048656;28;20471;-67
2023/11/12 04:01:52;;;;;;;2.60;1.60;;;22.10;94.80;;;;;;5047388;28;20471;-69
2023/11/12 04:04:18;;;;;;;2.23;2.00;;;22.10;94.80;;;;;;5050415;28;20527;-61
2023/11/12 04:06:45;;;;;;;3.67;1.70;;;22.10;94.50;;;;;;5046502;28;20947;-67
2023/11/12 04:09:13;;;;;;;3.17;2.20;;;22.10;94.40;;;;;;5051088;28;20477;-64
2023/11/12 04:11:41;;;;;;;3.07;1.77;;;22.10;94.00;;;;;;5050168;28;20889;-72
2023/11/12 04:14:08;;;;;;;1.93;1.63;;;22.00;93.80;;;;;;5052468;28;20559;-70
2023/11/12 04:16:35;;;;;;;3.20;2.07;;;22.10;93.80;;;;;;5045468;28;20464;-70
2023/11/12 04:19:02;;;;;;;1.83;1.50;;;22.00;93.80;;;;;;5051840;28;20467;-68
2023/11/12 04:21:29;;;;;;;3.20;1.63;;;22.00;93.80;;;;;;5048746;28;20457;-76
2023/11/12 04:23:56;;;;;;;2.00;1.70;;;22.00;93.90;;;;;;5053115;28;20452;-75
2023/11/12 04:26:25;;;;;;;2.80;1.90;;;22.00;93.80;;;;;;5049832;28;21311;-68
2023/11/12 04:28:51;;;;;;;2.60;1.80;;;22.00;93.80;;;;;;5049250;28;20472;-74
2023/11/12 04:31:18;;;;;;;3.40;1.77;;;22.00;94.10;;;;;;5045950;28;20453;-66
2023/11/12 04:33:46;;;;;;;4.40;2.27;;;22.00;93.70;;;;;;5046869;28;20461;-74
2023/11/12 04:36:14;;;;;;;2.50;2.30;;;22.00;93.60;;;;;;5048482;28;20510;-65
2023/11/12 04:38:41;;;;;;;2.33;1.77;;;22.10;93.60;;;;;;5050514;28;20543;-68
2023/11/12 04:41:11;;;;;;;2.80;1.53;;;22.00;93.50;;;;;;5046891;28;20464;-65
2023/11/12 04:43:40;;;;;;;3.67;2.27;;;22.00;93.40;;;;;;5054273;28;20451;-74
2023/11/12 04:46:07;;;;;;;2.20;2.00;;;22.10;93.50;;;;;;5046507;28;20545;-73
2023/11/12 04:48:34;;;;;;;1.90;1.67;;;22.10;93.40;;;;;;5050215;28;20479;-70
2023/11/12 04:51:01;;;;;;;1.97;1.70;;;22.10;93.30;;;;;;5053345;28;20464;-71
2023/11/12 04:53:28;;;;;;;1.90;1.50;;;22.10;93.30;;;;;;5052705;28;20476;-69
2023/11/12 04:55:55;;;;;;;2.77;2.13;;;22.10;93.30;;;;;;5051489;28;20458;-70
2023/11/12 04:58:23;;;;;;;2.20;1.77;;;22.00;93.20;;;;;;5050144;28;20716;-66
2023/11/12 05:00:51;;;;;;;1.90;1.60;;;22.00;93.20;;;;;;5045556;28;20516;-71
2023/11/12 05:03:20;;;;;;;3.20;2.07;;;22.10;93.20;;;;;;5046440;28;21023;-66
2023/11/12 05:05:47;;;;;;;2.27;1.60;;;22.10;93.10;;;;;;5048814;28;21516;-63
2023/11/12 05:08:13;;;;;;;3.83;2.17;;;22.10;93.20;;;;;;5050052;28;20481;-69
2023/11/12 05:10:40;;;;;;;3.10;1.83;;;22.00;93.00;;;;;;5048225;28;20462;-63
2023/11/12 05:13:08;;;;;;;2.23;2.00;;;22.10;93.00;;;;;;5047840;28;21420;-66
2023/11/12 05:15:35;;;;;;;2.10;1.50;;;22.10;93.00;;;;;;5047203;28;20511;-64
2023/11/12 05:18:05;;;;;;;2.00;1.80;;;22.10;93.00;;;;;;5046846;28;20471;-69
2023/11/12 05:20:33;;;;;;;2.50;1.73;;;22.10;92.90;;;;;;5049655;28;20454;-68
2023/11/12 05:23:00;;;;;;;2.43;2.00;;;22.10;92.90;;;;;;5047719;28;20464;-69
2023/11/12 05:25:27;;;;;;;2.57;1.90;;;22.10;92.80;;;;;;5044034;28;20544;-66
2023/11/12 05:27:54;;;;;;;2.23;1.60;;;22.10;92.70;;;;;;5042741;28;20481;-70
2023/11/12 05:30:22;;;;;;;4.50;1.93;;;22.10;92.70;;;;;;5035284;28;20529;-70
2023/11/12 05:32:49;;;;;;;2.50;1.80;;;22.10;92.70;;;;;;5042042;28;20463;-69
2023/11/12 05:35:18;;;;;;;3.47;1.97;;;22.10;92.70;;;;;;5045473;28;20461;-69
2023/11/12 05:37:45;;;;;;;3.37;1.90;;;22.00;92.70;;;;;;5043265;28;20464;-69
2023/11/12 05:40:13;;;;;;;2.57;1.50;;;22.00;92.70;;;;;;5045347;28;20466;-70
2023/11/12 05:42:40;;;;;;;3.20;2.00;;;22.00;92.70;;;;;;5044106;28;20461;-68
2023/11/12 05:45:07;;;;;;;1.90;1.63;;;22.00;92.70;;;;;;5039614;28;20985;-69
2023/11/12 05:47:34;;;;;;;2.33;1.43;;;22.00;92.80;;;;;;5044493;28;20484;-70
2023/11/12 05:50:01;;;;;;;2.30;1.90;;;22.10;92.80;;;;;;5044665;28;20464;-69
2023/11/12 05:52:29;;;;;;;2.83;2.00;;;22.00;92.80;;;;;;5040774;28;20457;-70
2023/11/12 05:54:56;;;;;;;2.10;1.50;;;22.00;92.70;;;;;;5043745;28;20501;-68
2023/11/12 05:57:23;;;;;;;2.90;1.53;;;22.00;93.00;;;;;;5046105;28;20471;-69
2023/11/12 05:59:50;;;;;;;1.67;1.57;;;22.00;92.70;;;;;;5043747;28;20495;-69
2023/11/12 06:02:17;;;;;;;1.97;1.60;;;22.00;92.70;;;;;;5041780;28;20465;-68
2023/11/12 06:04:43;;;;;;;1.83;1.73;;;22.00;92.70;;;;;;5040843;28;20477;-69
2023/11/12 06:07:10;;;;;;;2.57;1.90;;;22.00;92.60;;;;;;5037893;28;21536;-68
2023/11/12 06:09:38;;;;;;;2.23;1.60;;;21.90;92.60;;;;;;5032928;28;20476;-70
2023/11/12 06:12:07;;;;;;;2.20;1.80;;;21.90;92.60;;;;;;5033459;28;20965;-68
2023/11/12 06:14:36;;;;;;;2.67;1.80;;;21.90;92.50;;;;;;5038571;28;20554;-69
2023/11/12 06:17:03;;;;;;;2.63;1.60;;;21.90;92.60;;;;;;5042779;28;20471;-68
2023/11/12 06:19:30;;;;;;;1.93;1.73;;;21.90;92.60;;;;;;5042488;28;20551;-69
2023/11/12 06:21:57;;;;;;;1.70;1.60;;;21.90;92.60;;;;;;5044016;28;20492;-68
2023/11/12 06:24:23;;;;;;;1.83;1.50;;;21.90;92.70;;;;;;5030199;28;20456;-71
2023/11/12 06:26:51;;;;;;;3.40;1.97;;;21.90;92.70;;;;;;5031478;28;21468;-71
2023/11/12 06:29:18;;;;;;;1.63;1.53;;;21.90;92.50;;;;;;5026460;28;20481;-71
2023/11/12 06:31:45;;;;;;;2.40;2.00;;;21.80;92.40;;;;;;5029883;28;20497;-69
2023/11/12 06:34:12;;;;;;;2.73;2.03;;;21.80;92.40;;;;;;5045627;28;20480;-71
2023/11/12 06:36:38;;;;;;;1.93;1.70;;;21.80;92.40;;;;;;5046836;28;20580;-71
2023/11/12 06:39:05;;;;;;;4.50;1.40;;;21.80;92.40;;;;;;5046987;28;20468;-71
2023/11/12 06:41:33;;;;;;;2.60;1.50;;;21.80;92.40;;;;;;5048357;28;20473;-71
2023/11/12 06:44:01;;;;;;;3.10;1.87;;;21.80;92.40;;;;;;5042723;28;21543;-71
2023/11/12 06:46:28;;;;;;;4.80;2.07;;;21.80;92.40;;;;;;5041305;28;20487;-72
2023/11/12 06:48:54;;;;;;;5.03;2.00;;;21.80;92.40;;;;;;5044835;28;20487;-70
2023/11/12 06:51:22;;;;;;;7.93;2.03;;;21.80;92.40;;;;;;5046695;28;20469;-71
2023/11/12 06:53:49;;;;;;;3.10;1.67;;;21.80;92.50;;;;;;5045120;28;20524;-72
2023/11/12 06:56:15;;;;;;;1.70;1.50;;;21.70;90.60;;;;;;5045361;28;20468;-70
2023/11/12 06:58:42;;;;;;;1.90;1.70;;;21.60;91.20;;;;;;5044898;28;20481;-71
2023/11/12 07:01:10;;;;;;;4.00;1.40;;;21.60;91.50;;;;;;5042045;28;20472;-72
2023/11/12 07:03:37;;;;;;;1.30;1.17;;;21.60;91.60;;;;;;5047847;28;20465;-71
2023/11/12 07:06:04;;;;;;;2.67;1.60;;;21.60;91.70;;;;;;5045653;28;20452;-72
2023/11/12 07:08:31;;;;;;;1.50;1.40;;;21.60;91.80;;;;;;5049582;28;21574;-72
2023/11/12 07:10:58;;;;;;;1.73;1.63;;;21.60;91.70;;;;;;5048551;28;20659;-71
2023/11/12 07:13:25;;;;;;;3.00;1.83;;;21.60;91.80;;;;;;5047269;28;20515;-70
2023/11/12 07:15:52;;;;;;;2.00;1.60;;;21.60;91.80;;;;;;5047744;28;21451;-71
2023/11/12 07:18:20;;;;;;;1.93;1.47;;;21.50;91.80;;;;;;5048929;28;20465;-70
2023/11/12 07:20:47;;;;;;;2.50;1.83;;;21.50;91.90;;;;;;5044946;28;20987;-73
2023/11/12 07:23:14;;;;;;;1.67;1.50;;;21.50;92.00;;;;;;5048414;28;20466;-72
2023/11/12 07:25:40;;;;;;;1.80;1.53;;;21.50;92.10;;;;;;5056460;28;20453;-71
2023/11/12 07:28:08;;;;;;;2.20;1.80;;;21.50;92.10;;;;;;5055808;28;20998;-72
2023/11/12 07:30:37;;;;;;;2.25;1.60;;;21.50;92.20;;;;;;5054554;28;21041;-70
2023/11/12 07:33:04;;;;;;;1.83;1.50;;;21.50;92.30;;;;;;5050655;28;20203;-70
2023/11/12 07:35:32;;;;;;;2.33;1.80;;;21.50;92.30;;;;;;5050222;28;20461;-70
2023/11/12 07:38:00;;;;;;;1.83;1.73;;;21.50;92.30;;;;;;5056468;28;20510;-71
2023/11/12 07:40:27;;;;;;;1.90;1.60;;;21.50;92.40;;;;;;5053935;28;20855;-72
2023/11/12 07:42:55;;;;;;;2.33;1.63;;;21.50;92.50;;;;;;5051030;28;20473;-73
2023/11/12 07:45:22;;;;;;;3.15;2.25;;;21.50;92.50;;;;;;5054237;28;20461;-72
2023/11/12 07:47:48;;;;;;;3.53;1.50;;;21.50;92.50;;;;;;5049447;28;20194;-73
2023/11/12 07:50:15;;;;;;;1.63;1.53;;;21.50;92.60;;;;;;5056138;28;20227;-72
2023/11/12 07:52:43;;;;;;;2.40;1.57;;;21.60;92.70;;;;;;5044830;28;20468;-73
2023/11/12 07:55:11;;;;;;;2.80;1.80;;;21.50;92.60;;;;;;5050292;28;20470;-73
2023/11/12 07:57:38;;;;;;;2.77;1.70;;;21.60;92.70;;;;;;5052867;28;20447;-73
2023/11/12 08:00:06;;;;;;;1.70;1.60;;;21.50;92.70;;;;;;5050634;28;20481;-73
2023/11/12 08:02:33;;;;;;;2.22;2.03;;;21.60;92.80;;;;;;5050895;28;20471;-70
2023/11/12 08:05:03;;;;;;;1.70;1.37;;;21.60;92.80;;;;;;5052845;28;20207;-71
2023/11/12 08:07:30;;;;;;;1.93;1.60;;;21.60;92.80;;;;;;5052236;28;20472;-70
2023/11/12 08:09:58;;;;;;;1.70;1.40;;;21.60;92.80;;;;;;5053912;28;20477;-73
2023/11/12 08:12:25;;;;;;;2.03;1.43;;;21.60;92.80;;;;;;5052556;28;20988;-73
2023/11/12 08:14:51;;;;;;;1.93;1.70;;;21.60;92.80;;;;;;5052147;28;20466;-71
2023/11/12 08:17:18;;;;;;;1.90;1.50;;;21.60;92.90;;;;;;5050530;28;20461;-71
2023/11/12 08:19:45;;;;;;;2.33;1.60;;;21.60;92.90;;;;;;5052435;28;20480;-71
2023/11/12 08:22:12;;;;;;;1.67;1.57;;;21.60;92.90;;;;;;5046137;28;20457;-73
2023/11/12 08:24:38;;;;;;;1.70;1.30;;;21.60;92.90;;;;;;5050413;28;21441;-73
2023/11/12 08:27:07;;;;;;;1.97;1.30;;;21.60;92.90;;;;;;5049576;28;20453;-71
2023/11/12 08:29:35;;;;;;;3.20;2.03;;;21.60;92.90;;;;;;5051167;28;20484;-70
2023/11/12 08:32:02;;;;;;;1.77;1.57;;;21.60;92.80;;;;;;5045128;28;20461;-73
2023/11/12 08:34:29;;;;;;;1.73;1.53;;;21.60;92.90;;;;;;5048333;28;20464;-72
2023/11/12 08:36:56;;;;;;;1.50;1.40;;;21.60;92.80;;;;;;5048857;28;20463;-71
2023/11/12 08:39:24;;;;;;;1.77;1.63;;;21.60;92.60;;;;;;5048342;28;20461;-70
2023/11/12 08:41:52;;;;;;;2.80;1.50;;;21.60;92.60;;;;;;5050179;28;20864;-72
2023/11/12 08:44:21;;;;;;;2.50;1.93;;;21.60;92.60;;;;;;5049234;28;20489;-72
2023/11/12 08:46:48;;;;;;;2.80;1.30;;;21.60;92.60;;;;;;5046336;28;20454;-70
2023/11/12 08:49:14;;;;;;;1.67;1.50;;;21.60;92.60;;;;;;5048375;28;20482;-72
2023/11/12 08:51:41;;;;;;;2.07;1.40;;;21.60;92.60;;;;;;5047083;28;20464;-71
2023/11/12 08:54:09;;;;;;;2.20;1.37;;;21.60;92.60;;;;;;5046378;28;20552;-71
2023/11/12 08:56:36;;;;;;;1.67;1.50;;;21.60;92.60;;;;;;5050281;28;20511;-70
2023/11/12 08:59:03;;;;;;;2.10;1.60;;;21.60;92.70;;;;;;5050502;28;20561;-70
2023/11/12 09:01:34;;;;;;;2.37;1.90;;;21.60;92.70;;;;;;5042286;28;20459;-69
2023/11/12 09:04:01;;;;;;;1.63;1.53;;;21.60;92.70;;;;;;5045913;28;20468;-72
2023/11/12 09:06:28;;;;;;;2.30;1.50;;;21.60;92.60;;;;;;5049657;28;20458;-69
2023/11/12 09:08:55;;;;;;;1.47;1.37;;;21.60;92.70;;;;;;5050081;28;20472;-72
2023/11/12 09:11:22;;;;;;;2.40;1.80;;;21.60;92.60;;;;;;5049280;28;20985;-70
2023/11/12 09:13:48;;;;;;;1.60;1.07;;;21.60;92.70;;;;;;5048639;28;20962;-71
2023/11/12 09:16:16;;;;;;;2.13;1.43;;;21.60;92.60;;;;;;5047481;28;20463;-71
2023/11/12 09:18:44;;;;;;;1.90;1.27;;;21.60;92.60;;;;;;5048355;28;20464;-70
2023/11/12 09:21:11;;;;;;;1.37;1.27;;;21.60;92.50;;;;;;5045786;28;20460;-70
2023/11/12 09:23:38;;;;;;;1.60;1.30;;;21.60;92.60;;;;;;5048461;28;20460;-70
2023/11/12 09:26:05;;;;;;;2.90;1.30;;;21.60;92.50;;;;;;5046317;28;20456;-70
2023/11/12 09:28:31;;;;;;;1.53;1.43;;;21.60;92.50;;;;;;5046849;28;20464;-71
2023/11/12 09:30:58;;;;;;;1.47;1.37;;;21.60;92.40;;;;;;5044857;28;20478;-69
2023/11/12 09:33:26;;;;;;;1.60;1.43;;;21.60;92.20;;;;;;5048705;28;21641;-70
2023/11/12 09:35:54;;;;;;;2.30;2.10;;;21.60;92.30;;;;;;5048530;28;20465;-70
2023/11/12 09:38:21;;;;;;;2.17;1.73;;;21.60;92.30;;;;;;5048843;28;20995;-70
2023/11/12 09:40:48;;;;;;;1.73;1.47;;;21.60;92.20;;;;;;5047740;28;20457;-70
2023/11/12 09:43:17;;;;;;;2.10;1.47;;;21.60;92.10;;;;;;5050253;28;20471;-70
2023/11/12 09:45:46;;;;;;;1.63;1.40;;;21.60;92.00;;;;;;5046438;28;20472;-73
2023/11/12 09:48:23;;;;;;;2.00;1.43;;;21.50;92.00;;;;;;5047132;28;20462;-71
2023/11/12 09:50:50;;;;;;;1.83;1.73;;;21.60;92.20;;;;;;5046725;28;20477;-71
2023/11/12 09:53:18;;;;;;;1.47;1.37;;;21.60;92.20;;;;;;5049453;28;20829;-72
2023/11/12 09:55:46;;;;;;;1.87;1.67;;;21.60;92.20;;;;;;5043533;28;20452;-68
2023/11/12 09:58:13;;;;;;;3.10;1.53;;;21.60;92.20;;;;;;5045365;28;20456;-70
2023/11/12 10:00:40;;;;;;;2.30;1.60;;;21.60;92.30;;;;;;5046183;28;20826;-70
2023/11/12 10:03:08;;;;;;;1.90;1.30;;;21.60;92.20;;;;;;5045958;28;20968;-70
2023/11/12 10:05:35;;;;;;;1.50;1.40;;;21.60;92.30;;;;;;5045734;28;20454;-71
2023/11/12 10:08:02;;;;;;;1.60;1.30;;;21.60;92.20;;;;;;5053246;28;21003;-71
2023/11/12 10:10:31;;;;;;;1.60;1.50;;;21.60;92.30;;;;;;5049461;28;20491;-71
2023/11/12 10:12:58;;;;;;;2.13;1.43;;;21.60;92.30;;;;;;5053519;28;20488;-69
2023/11/12 10:15:28;;;;;;;1.43;1.30;;;21.60;92.30;;;;;;5044600;28;20461;-68
2023/11/12 10:17:55;;;;;;;1.83;1.47;;;21.60;92.70;;;;;;5047463;28;20466;-71
2023/11/12 10:20:24;;;;;;;2.43;1.77;;;21.60;92.40;;;;;;5049259;28;20460;-68
2023/11/12 10:22:52;;;;;;;2.27;1.30;;;21.60;92.40;;;;;;5046116;28;20826;-69
2023/11/12 10:25:38;;;;;;;2.93;1.70;;;21.60;92.40;;;;;;5045287;28;20451;-71
2023/11/12 10:28:06;;;;;;;1.73;1.50;;;21.60;92.30;;;;;;5041493;28;20471;-68
2023/11/12 10:30:33;;;;;;;1.70;1.60;;;21.60;92.50;;;;;;5042497;28;20538;-71
2023/11/12 10:33:15;;;;;;;1.50;1.33;;;21.60;92.40;;;;;;5040495;28;20826;-71
2023/11/12 10:35:42;;;;;;;1.90;1.20;;;21.60;92.40;;;;;;5040648;28;20969;-70
2023/11/12 10:38:10;;;;;;;1.93;1.60;;;21.60;92.50;;;;;;5037800;28;20461;-72
2023/11/12 10:40:38;;;;;;;1.63;1.10;;;21.60;92.50;;;;;;5041101;28;20444;-69
2023/11/12 10:43:09;;;;;;;1.90;1.30;;;21.60;92.40;;;;;;5045773;28;20846;-71
2023/11/12 10:45:36;;;;;;;2.43;1.60;;;21.60;92.40;;;;;;5046017;28;20481;-68
2023/11/12 10:48:04;;;;;;;1.60;1.50;;;21.60;92.50;;;;;;5047590;28;20976;-69
2023/11/12 10:50:32;;;;;;;1.40;1.10;;;21.60;92.40;;;;;;5043402;28;20714;-71
2023/11/12 10:53:00;;;;;;;2.33;1.30;;;21.60;92.40;;;;;;5042482;28;20564;-69
2023/11/12 10:55:27;;;;;;;2.80;1.87;;;21.60;92.40;;;;;;5043623;28;20461;-72
2023/11/12 10:57:56;;;;;;;1.70;1.40;;;21.60;92.50;;;;;;5042984;28;20457;-73
2023/11/12 11:00:24;;;;;;;2.17;1.37;;;21.60;92.50;;;;;;5049739;28;20494;-72
2023/11/12 11:02:51;;;;;;;1.70;1.60;;;21.60;92.40;;;;;;5050188;28;20932;-71
2023/11/12 11:05:17;;;;;;;3.13;1.30;;;21.60;92.50;;;;;;5050085;28;20938;-69
2023/11/12 11:07:47;;;;;;;2.00;1.70;;;21.60;92.50;;;;;;5049736;28;20486;-72
2023/11/12 11:10:15;;;;;;;2.20;1.47;;;21.60;92.50;;;;;;5051249;28;20479;-71
2023/11/12 11:12:43;;;;;;;2.50;1.53;;;21.60;92.60;;;;;;5048890;28;20461;-67
2023/11/12 11:15:43;;;;;;;3.63;1.30;;;21.60;92.50;;;;;;5046515;28;20537;-69
2023/11/12 11:18:50;;;;;;;3.17;1.87;;;21.60;92.60;;;;;;5049572;28;20465;-73
2023/11/12 11:21:18;;;;;;;6.63;2.30;;;21.60;92.60;;;;;;5051774;28;20462;-67
2023/11/12 11:23:49;;;;;;;9.73;2.20;;;21.60;92.50;;;;;;5049877;28;20461;-74
2023/11/12 11:26:30;;;;;;;13.33;4.93;;;21.60;92.50;;;;;;5050942;28;21036;-67
2023/11/12 11:29:18;;;;;;;14.40;6.00;;;21.50;92.50;;;;;;5050151;28;20458;-65
2023/11/12 11:32:17;;;;;;;15.43;5.30;;;21.50;92.50;;;;;;5046054;28;20987;-64
2023/11/12 11:34:45;;;;;;;19.57;6.50;;;21.40;92.50;;;;;;5049208;28;20965;-69
2023/11/12 11:37:13;;;;;;;14.57;6.93;;;21.50;93.40;;;;;;5048214;28;20479;-72
2023/11/12 11:39:40;;;;;;;18.50;5.63;;;21.50;93.30;;;;;;5049058;28;20461;-68
2023/11/12 11:42:15;;;;;;;16.50;6.30;;;21.50;93.80;;;;;;5050977;28;20460;-67
2023/11/12 11:44:44;;;;;;;16.93;6.93;;;21.50;93.90;;;;;;5048389;28;20896;-70
2023/11/12 11:47:13;;;;;;;15.13;5.67;;;21.50;94.20;;;;;;5046072;28;20457;-68
2023/11/12 11:49:42;;;;;;;15.87;6.13;;;21.60;94.70;;;;;;5048594;28;20454;-68
2023/11/12 11:52:09;;;;;;;17.27;6.00;;;21.60;94.60;;;;;;5049182;28;20459;-75
2023/11/12 11:54:36;;;;;;;21.10;6.80;;;21.60;94.80;;;;;;5049085;28;20461;-78
2023/11/12 11:57:04;;;;;;;19.40;6.17;;;21.70;94.90;;;;;;5038289;28;21094;-70
2023/11/12 11:59:35;;;;;;;14.13;7.03;;;21.70;94.90;;;;;;5047720;28;20457;-77
2023/11/12 12:02:02;;;;;;;23.10;6.63;;;21.70;95.10;;;;;;5043363;28;20465;-71
2023/11/12 12:04:29;;;;;;;11.77;6.70;;;21.70;95.20;;;;;;5045023;28;20471;-79
2023/11/12 12:06:57;;;;;;;13.83;5.57;;;21.70;95.20;;;;;;5044112;28;20472;-75
2023/11/12 12:09:24;;;;;;;17.83;5.80;;;21.80;95.30;;;;;;5041379;28;20468;-74
2023/11/12 12:11:52;;;;;;;14.90;5.90;;;21.80;95.20;;;;;;5043870;28;20491;-71
2023/11/12 12:14:21;;;;;;;12.47;6.30;;;21.80;95.30;;;;;;5046718;28;20457;-75
2023/11/12 12:16:48;;;;;;;15.87;6.80;;;21.90;95.30;;;;;;5043487;28;20509;-72
2023/11/12 12:19:18;;;;;;;15.63;6.60;;;21.90;95.40;;;;;;5046639;28;20460;-72
2023/11/12 12:21:45;;;;;;;15.27;5.93;;;21.90;95.30;;;;;;5042964;28;20472;-70
2023/11/12 12:24:14;;;;;;;21.10;6.53;;;21.90;95.30;;;;;;5049541;28;20460;-71
2023/11/12 12:26:41;;;;;;;12.30;6.43;;;21.90;95.20;;;;;;5047598;28;20458;-72
2023/11/12 12:29:20;;;;;;;14.27;6.03;;;21.90;95.10;;;;;;5049946;28;20458;-71
2023/11/12 12:31:48;;;;;;;17.60;6.63;;;22.00;95.00;;;;;;5047074;28;20468;-71
2023/11/12 12:34:16;;;;;;;11.23;5.03;;;21.90;94.70;;;;;;5050253;28;20997;-70
2023/11/12 12:37:02;;;;;;;15.53;5.23;;;22.00;94.70;;;;;;5046988;28;20499;-72
2023/11/12 12:39:52;;;;;;;15.73;4.83;;;22.00;94.60;;;;;;5049201;28;20487;-73
2023/11/12 12:42:19;;;;;;;11.70;6.30;;;22.00;94.50;;;;;;5045443;28;20465;-71
2023/11/12 12:44:51;;;;;;;13.43;6.00;;;22.00;94.40;;;;;;5045741;28;20537;-74
2023/11/12 12:47:33;;;;;;;10.47;5.70;;;22.00;94.40;;;;;;5049546;28;20453;-71
2023/11/12 12:50:13;;;;;;;12.70;4.80;;;22.10;94.30;;;;;;5045621;28;20456;-71